Time;durP1;ratioP1;P1;durP2;ratioP2;P2;SDS_P1;SDS_P2;PMS_P1;PMS_P2;Temp;Humidity;BMP_temperature;BMP_pressure;BME280_temperature;BME280_humidity;BME280_pressure;Samples;Min_cycle;Max_cycle;Signal;HPM_P1;HPM_P2
2022/04/14 00:01:09;;;;;;;6.50;3.40;;;;;;;;;;5096997;28;20478;-79
2022/04/14 00:03:35;;;;;;;6.68;3.70;;;;;;;;;;5096582;28;20028;-80
2022/04/14 00:06:00;;;;;;;5.60;4.05;;;;;;;;;;5079591;28;20032;-79
2022/04/14 00:08:25;;;;;;;9.32;4.88;;;;;;;;;;5096795;28;20371;-79
2022/04/14 00:10:51;;;;;;;6.82;4.10;;;;;;;;;;5096296;28;20084;-79
2022/04/14 00:13:16;;;;;;;5.15;4.40;;;;;;;;;;5114754;28;20434;-79
2022/04/14 00:15:42;;;;;;;6.10;4.63;;;;;;;;;;5114564;28;20114;-79
2022/04/14 00:18:07;;;;;;;5.68;4.13;;;;;;;;;;5114433;28;20031;-79
2022/04/14 00:20:33;;;;;;;7.15;4.60;;;;;;;;;;5096224;28;20450;-79
2022/04/14 00:22:59;;;;;;;5.88;4.10;;;;;;;;;;5096517;28;20028;-79
2022/04/14 00:25:25;;;;;;;6.22;4.00;;;;;;;;;;5096710;28;20028;-79
2022/04/14 00:27:50;;;;;;;6.25;4.38;;;;;;;;;;5114324;28;20472;-79
2022/04/14 00:30:16;;;;;;;6.85;3.75;;;;;;;;;;5114418;28;20430;-80
2022/04/14 00:32:41;;;;;;;6.72;4.53;;;;;;;;;;5095934;28;20024;-79
2022/04/14 00:35:07;;;;;;;7.00;4.50;;;;;;;;;;5096482;28;20051;-79
2022/04/14 00:37:32;;;;;;;7.15;4.28;;;;;;;;;;5096129;28;20035;-79
2022/04/14 00:39:58;;;;;;;7.15;4.53;;;;;;;;;;5096033;28;20058;-79
2022/04/14 00:42:23;;;;;;;7.00;4.97;;;;;;;;;;5096673;28;20532;-80
2022/04/14 00:44:49;;;;;;;6.45;4.38;;;;;;;;;;5114520;28;20103;-80
2022/04/14 00:47:15;;;;;;;6.80;3.97;;;;;;;;;;5079028;28;20031;-80
2022/04/14 00:49:41;;;;;;;5.70;4.00;;;;;;;;;;5095687;28;20051;-79
2022/04/14 00:52:06;;;;;;;5.93;4.10;;;;;;;;;;5114128;28;20093;-80
2022/04/14 00:54:33;;;;;;;6.72;4.25;;;;;;;;;;5113789;28;20118;-80
2022/04/14 00:56:58;;;;;;;7.18;4.60;;;;;;;;;;5095789;28;20088;-79
2022/04/14 00:59:24;;;;;;;5.68;4.20;;;;;;;;;;5096071;28;20027;-79
2022/04/14 01:01:50;;;;;;;7.75;4.13;;;;;;;;;;5113937;28;20055;-79
2022/04/14 01:04:16;;;;;;;7.00;4.82;;;;;;;;;;5114034;28;20028;-79
2022/04/14 01:06:43;;;;;;;5.45;4.35;;;;;;;;;;5095603;28;20023;-79
2022/04/14 01:09:19;;;;;;;6.70;4.28;;;;;;;;;;5095538;28;20067;-79
2022/04/14 01:12:06;;;;;;;6.28;4.18;;;;;;;;;;5097359;28;20023;-80
2022/04/14 01:14:36;;;;;;;5.22;4.22;;;;;;;;;;5095324;28;20066;-79
2022/04/14 01:17:07;;;;;;;6.30;4.47;;;;;;;;;;5095355;28;20583;-80
2022/04/14 01:19:33;;;;;;;5.30;4.03;;;;;;;;;;5095269;28;20419;-79
2022/04/14 01:22:23;;;;;;;9.20;4.40;;;;;;;;;;5095551;28;20035;-79
2022/04/14 01:24:49;;;;;;;6.03;4.38;;;;;;;;;;5112128;28;20030;-79
2022/04/14 01:27:14;;;;;;;7.75;4.85;;;;;;;;;;5095628;28;20036;-79
2022/04/14 01:29:40;;;;;;;8.40;4.85;;;;;;;;;;5077832;28;20478;-80
2022/04/14 01:32:06;;;;;;;8.35;5.60;;;;;;;;;;5114063;28;20382;-79
2022/04/14 01:34:31;;;;;;;6.47;4.80;;;;;;;;;;5095218;28;20031;-81
2022/04/14 01:36:58;;;;;;;7.57;5.45;;;;;;;;;;5114007;28;20100;-81
2022/04/14 01:39:24;;;;;;;6.57;4.35;;;;;;;;;;5095220;28;20043;-80
2022/04/14 01:41:49;;;;;;;5.53;4.50;;;;;;;;;;5095525;28;20068;-80
2022/04/14 01:44:14;;;;;;;6.45;4.82;;;;;;;;;;5113241;28;20027;-80
2022/04/14 01:46:41;;;;;;;6.60;4.97;;;;;;;;;;5095858;28;20438;-80
2022/04/14 01:49:10;;;;;;;6.90;4.95;;;;;;;;;;5095276;28;20047;-80
2022/04/14 01:51:36;;;;;;;5.65;4.32;;;;;;;;;;5095327;28;20068;-80
2022/04/14 01:54:02;;;;;;;6.57;4.15;;;;;;;;;;5095213;28;20570;-81
2022/04/14 01:56:27;;;;;;;6.55;5.05;;;;;;;;;;5094848;28;20031;-80
2022/04/14 01:58:53;;;;;;;9.13;4.93;;;;;;;;;;5078493;28;20077;-81
2022/04/14 02:01:19;;;;;;;8.10;5.80;;;;;;;;;;5113435;28;20024;-80
2022/04/14 02:03:44;;;;;;;8.25;5.80;;;;;;;;;;5114677;28;20415;-81
2022/04/14 02:06:10;;;;;;;8.00;5.10;;;;;;;;;;5095089;28;20067;-81
2022/04/14 02:08:36;;;;;;;9.68;5.90;;;;;;;;;;5112972;28;20115;-81
2022/04/14 02:11:04;;;;;;;5.78;5.00;;;;;;;;;;5095001;28;20111;-81
2022/04/14 02:13:30;;;;;;;13.30;5.85;;;;;;;;;;5112968;28;20028;-80
2022/04/14 02:15:56;;;;;;;7.65;5.55;;;;;;;;;;5094867;28;20332;-81
2022/04/14 02:18:21;;;;;;;7.68;5.88;;;;;;;;;;5113200;28;20043;-81
2022/04/14 02:20:47;;;;;;;8.50;5.78;;;;;;;;;;5112823;28;20062;-80
2022/04/14 02:23:12;;;;;;;8.00;5.85;;;;;;;;;;5094537;28;20414;-80
2022/04/14 02:25:37;;;;;;;9.40;6.07;;;;;;;;;;5096103;28;20032;-80
2022/04/14 02:28:03;;;;;;;11.18;6.53;;;;;;;;;;5098421;28;20034;-80
2022/04/14 02:30:28;;;;;;;7.35;5.90;;;;;;;;;;5098499;28;20027;-81
2022/04/14 02:32:54;;;;;;;8.15;5.43;;;;;;;;;;5116651;28;20024;-80
2022/04/14 02:35:20;;;;;;;7.47;5.15;;;;;;;;;;5116643;28;20052;-81
2022/04/14 02:37:45;;;;;;;8.52;5.50;;;;;;;;;;5116471;28;20027;-81
2022/04/14 02:40:11;;;;;;;7.13;5.60;;;;;;;;;;5116742;28;20463;-80
2022/04/14 02:42:36;;;;;;;6.93;5.28;;;;;;;;;;5116876;28;20040;-80
2022/04/14 02:45:02;;;;;;;7.05;5.13;;;;;;;;;;5116630;28;20027;-80
2022/04/14 02:47:27;;;;;;;7.40;4.90;;;;;;;;;;5098363;28;20031;-80
2022/04/14 02:49:53;;;;;;;6.72;4.82;;;;;;;;;;5097976;28;20050;-80
2022/04/14 02:52:18;;;;;;;7.57;5.03;;;;;;;;;;5116491;28;20031;-80
2022/04/14 02:54:43;;;;;;;7.32;5.47;;;;;;;;;;5081101;28;20036;-80
2022/04/14 02:57:09;;;;;;;9.15;5.53;;;;;;;;;;5081249;28;20039;-80
2022/04/14 02:59:34;;;;;;;8.02;5.00;;;;;;;;;;5081473;28;20062;-80
2022/04/14 03:02:01;;;;;;;8.10;5.20;;;;;;;;;;5097943;28;20084;-80
2022/04/14 03:04:29;;;;;;;7.13;5.18;;;;;;;;;;5098102;28;20023;-79
2022/04/14 03:06:55;;;;;;;7.38;5.53;;;;;;;;;;5098369;28;20020;-80
2022/04/14 03:09:20;;;;;;;8.30;5.93;;;;;;;;;;5116196;28;20031;-80
2022/04/14 03:11:45;;;;;;;7.32;5.65;;;;;;;;;;5080331;28;20550;-80
2022/04/14 03:14:11;;;;;;;7.25;5.65;;;;;;;;;;5115871;28;20032;-80
2022/04/14 03:16:36;;;;;;;10.15;5.70;;;;;;;;;;5099245;28;20115;-80
2022/04/14 03:19:02;;;;;;;7.55;5.90;;;;;;;;;;5097505;28;20366;-80
2022/04/14 03:21:27;;;;;;;9.27;6.15;;;;;;;;;;5097816;28;20031;-80
2022/04/14 03:23:52;;;;;;;7.95;6.18;;;;;;;;;;5116296;28;20466;-81
2022/04/14 03:26:18;;;;;;;8.48;6.45;;;;;;;;;;5116536;28;20032;-80
2022/04/14 03:28:43;;;;;;;8.88;6.05;;;;;;;;;;5097296;28;20036;-80
2022/04/14 03:31:10;;;;;;;7.30;6.20;;;;;;;;;;5097365;28;20031;-81
2022/04/14 03:33:35;;;;;;;7.57;5.78;;;;;;;;;;5115901;28;20091;-80
2022/04/14 03:36:00;;;;;;;10.07;6.25;;;;;;;;;;5115828;28;20039;-81
2022/04/14 03:38:26;;;;;;;8.63;5.97;;;;;;;;;;5096701;28;20035;-80
2022/04/14 03:40:51;;;;;;;9.30;6.15;;;;;;;;;;5115893;28;20024;-81
2022/04/14 03:43:17;;;;;;;9.45;6.47;;;;;;;;;;5117113;28;20031;-80
2022/04/14 03:45:42;;;;;;;11.25;6.32;;;;;;;;;;5103860;28;20092;-80
2022/04/14 03:48:08;;;;;;;9.63;6.65;;;;;;;;;;5098387;28;20028;-80
2022/04/14 03:50:33;;;;;;;8.07;5.95;;;;;;;;;;5097253;28;20050;-80
2022/04/14 03:52:59;;;;;;;9.27;6.65;;;;;;;;;;5097019;28;20127;-81
2022/04/14 03:55:24;;;;;;;7.35;6.13;;;;;;;;;;5079792;28;20515;-81
2022/04/14 03:57:49;;;;;;;8.73;5.55;;;;;;;;;;5097159;28;20036;-81
2022/04/14 04:00:15;;;;;;;21.58;5.57;;;;;;;;;;5115229;28;20379;-80
2022/04/14 04:02:40;;;;;;;6.95;5.32;;;;;;;;;;5115369;28;20023;-80
2022/04/14 04:05:06;;;;;;;6.78;5.90;;;;;;;;;;5096842;28;20027;-80
2022/04/14 04:07:32;;;;;;;6.95;5.72;;;;;;;;;;5096804;28;20101;-79
2022/04/14 04:09:57;;;;;;;7.85;5.82;;;;;;;;;;5096876;28;20024;-81
2022/04/14 04:12:22;;;;;;;12.10;6.22;;;;;;;;;;5114882;28;20031;-81
2022/04/14 04:14:49;;;;;;;7.22;5.63;;;;;;;;;;5115122;28;20377;-79
2022/04/14 04:17:17;;;;;;;9.15;5.45;;;;;;;;;;5096207;28;20024;-80
2022/04/14 04:19:43;;;;;;;10.23;6.45;;;;;;;;;;5096535;28;20016;-81
2022/04/14 04:22:09;;;;;;;9.43;6.47;;;;;;;;;;5114992;28;20512;-80
2022/04/14 04:24:35;;;;;;;9.52;6.05;;;;;;;;;;5096685;28;20038;-80
2022/04/14 04:27:00;;;;;;;8.43;6.40;;;;;;;;;;5115094;28;20032;-80
2022/04/14 04:29:26;;;;;;;10.30;6.13;;;;;;;;;;5114381;28;20035;-79
2022/04/14 04:31:51;;;;;;;10.77;6.32;;;;;;;;;;5115565;28;20107;-80
2022/04/14 04:34:19;;;;;;;11.63;7.20;;;;;;;;;;5114011;28;20070;-79
2022/04/14 04:36:45;;;;;;;7.85;5.65;;;;;;;;;;5115672;28;20035;-79
2022/04/14 04:39:10;;;;;;;9.95;5.82;;;;;;;;;;5079933;28;20138;-79
2022/04/14 04:41:36;;;;;;;6.97;5.75;;;;;;;;;;5115141;28;20039;-79
2022/04/14 04:44:01;;;;;;;9.50;5.25;;;;;;;;;;5080023;28;20481;-79
2022/04/14 04:46:26;;;;;;;8.10;5.68;;;;;;;;;;5096896;28;20031;-80
2022/04/14 04:48:52;;;;;;;6.18;5.28;;;;;;;;;;5095815;28;20036;-79
2022/04/14 04:51:17;;;;;;;7.93;5.05;;;;;;;;;;5114834;28;20379;-79
2022/04/14 04:53:43;;;;;;;6.63;5.25;;;;;;;;;;5115211;28;20027;-83
2022/04/14 04:56:09;;;;;;;13.35;7.05;;;;;;;;;;5079793;28;20051;-83
2022/04/14 04:58:34;;;;;;;14.30;8.02;;;;;;;;;;5096702;28;20367;-81
2022/04/14 05:01:00;;;;;;;10.50;7.43;;;;;;;;;;5096671;28;20032;-81
2022/04/14 05:03:25;;;;;;;14.43;8.00;;;;;;;;;;5096935;28;20505;-83
2022/04/14 05:05:50;;;;;;;13.60;8.13;;;;;;;;;;5114872;28;20027;-80
2022/04/14 05:08:16;;;;;;;17.58;7.90;;;;;;;;;;5117602;28;20032;-81
2022/04/14 05:10:41;;;;;;;11.23;7.13;;;;;;;;;;5099018;28;20089;-81
2022/04/14 05:13:07;;;;;;;13.25;7.13;;;;;;;;;;5116674;28;20027;-82
2022/04/14 05:15:33;;;;;;;16.92;6.85;;;;;;;;;;5098652;28;20036;-82
2022/04/14 05:17:58;;;;;;;15.38;8.32;;;;;;;;;;5117109;28;20024;-81
2022/04/14 05:20:23;;;;;;;11.75;7.32;;;;;;;;;;5099562;28;20031;-81
2022/04/14 05:22:49;;;;;;;12.85;7.13;;;;;;;;;;5117665;28;20390;-80
2022/04/14 05:25:14;;;;;;;12.40;6.80;;;;;;;;;;5099884;28;20027;-80
2022/04/14 05:27:42;;;;;;;9.52;6.22;;;;;;;;;;5118171;28;20032;-81
2022/04/14 05:30:08;;;;;;;11.90;6.45;;;;;;;;;;5099725;28;20023;-80
2022/04/14 05:32:33;;;;;;;12.82;6.45;;;;;;;;;;5099365;28;20035;-81
2022/04/14 05:34:59;;;;;;;12.90;5.57;;;;;;;;;;5116932;28;20028;-80
2022/04/14 05:37:25;;;;;;;9.35;5.95;;;;;;;;;;5116708;28;20074;-80
2022/04/14 05:39:50;;;;;;;9.88;6.07;;;;;;;;;;5117319;28;20023;-81
2022/04/14 05:42:16;;;;;;;8.50;6.38;;;;;;;;;;5116903;28;20031;-81
2022/04/14 05:44:41;;;;;;;8.35;5.82;;;;;;;;;;5098768;28;20055;-81
2022/04/14 05:47:06;;;;;;;8.73;5.82;;;;;;;;;;5098669;28;20126;-80
2022/04/14 05:49:32;;;;;;;13.50;6.38;;;;;;;;;;5098191;28;20042;-81
2022/04/14 05:51:57;;;;;;;9.50;6.25;;;;;;;;;;5115791;28;20096;-81
2022/04/14 05:54:23;;;;;;;9.65;5.57;;;;;;;;;;5098873;28;20050;-81
2022/04/14 05:56:48;;;;;;;7.18;4.90;;;;;;;;;;5099256;28;20032;-81
2022/04/14 05:59:16;;;;;;;6.72;4.40;;;;;;;;;;5098710;28;20031;-81
2022/04/14 06:01:45;;;;;;;9.57;4.95;;;;;;;;;;5117125;28;20057;-81
2022/04/14 06:04:11;;;;;;;8.50;5.43;;;;;;;;;;5098564;28;20508;-81
2022/04/14 06:06:37;;;;;;;6.13;4.40;;;;;;;;;;5098123;28;20032;-81
2022/04/14 06:09:02;;;;;;;7.45;4.55;;;;;;;;;;5096534;28;20028;-81
2022/04/14 06:11:28;;;;;;;7.20;4.88;;;;;;;;;;5079859;28;20028;-80
2022/04/14 06:13:54;;;;;;;6.82;4.20;;;;;;;;;;5079718;28;20371;-81
2022/04/14 06:16:19;;;;;;;5.32;4.07;;;;;;;;;;5079216;28;20107;-80
2022/04/14 06:18:45;;;;;;;6.60;4.35;;;;;;;;;;5115470;28;20077;-81
2022/04/14 06:21:10;;;;;;;6.00;4.70;;;;;;;;;;5096718;28;20128;-82
2022/04/14 06:23:36;;;;;;;5.65;4.18;;;;;;;;;;5115015;28;20036;-81
2022/04/14 06:26:03;;;;;;;9.73;5.22;;;;;;;;;;5113924;28;20107;-81
2022/04/14 06:28:28;;;;;;;6.40;4.45;;;;;;;;;;5081000;28;20024;-81
2022/04/14 06:30:54;;;;;;;4.68;4.05;;;;;;;;;;5115068;28;20043;-80
2022/04/14 06:33:20;;;;;;;5.20;3.65;;;;;;;;;;5096466;28;20040;-81
2022/04/14 06:35:46;;;;;;;5.25;3.92;;;;;;;;;;5096042;28;20107;-81
2022/04/14 06:38:11;;;;;;;5.45;3.90;;;;;;;;;;5079086;28;20051;-81
2022/04/14 06:40:37;;;;;;;6.47;4.38;;;;;;;;;;5095343;28;20028;-81
2022/04/14 06:43:03;;;;;;;5.63;3.88;;;;;;;;;;5080880;28;20023;-81
2022/04/14 06:45:29;;;;;;;7.38;4.35;;;;;;;;;;5097564;28;20034;-81
2022/04/14 06:47:55;;;;;;;7.82;4.10;;;;;;;;;;5080808;28;20024;-81
2022/04/14 06:50:20;;;;;;;7.75;4.25;;;;;;;;;;5096710;28;20043;-80
2022/04/14 06:52:46;;;;;;;6.13;4.00;;;;;;;;;;5096397;28;20066;-81
2022/04/14 06:55:12;;;;;;;6.05;4.03;;;;;;;;;;5096334;28;20039;-80
2022/04/14 06:57:37;;;;;;;6.07;4.03;;;;;;;;;;5078654;28;20024;-81
2022/04/14 07:00:04;;;;;;;4.50;3.90;;;;;;;;;;5096399;28;20445;-80
2022/04/14 07:02:31;;;;;;;4.45;3.75;;;;;;;;;;5078981;28;20081;-81
2022/04/14 07:04:58;;;;;;;5.18;4.00;;;;;;;;;;5095999;28;20035;-82
2022/04/14 07:07:23;;;;;;;5.47;3.85;;;;;;;;;;5115126;28;20051;-81
2022/04/14 07:09:49;;;;;;;5.63;4.00;;;;;;;;;;5114820;28;20024;-81
2022/04/14 07:12:14;;;;;;;5.97;3.67;;;;;;;;;;5097744;28;20035;-81
2022/04/14 07:14:40;;;;;;;4.28;3.80;;;;;;;;;;5117322;28;20478;-82
2022/04/14 07:17:05;;;;;;;6.03;3.67;;;;;;;;;;5117529;28;20023;-83
2022/04/14 07:19:31;;;;;;;4.07;3.55;;;;;;;;;;5099766;28;20097;-84
2022/04/14 07:21:57;;;;;;;4.78;3.55;;;;;;;;;;5082463;28;20027;-82
2022/04/14 07:24:22;;;;;;;4.75;3.40;;;;;;;;;;5082038;28;20031;-82
2022/04/14 07:26:48;;;;;;;5.45;3.15;;;;;;;;;;5082196;28;20039;-81
2022/04/14 07:29:14;;;;;;;4.28;3.22;;;;;;;;;;5098425;28;20440;-82
2022/04/14 07:31:42;;;;;;;5.15;3.55;;;;;;;;;;5082029;28;20028;-81
2022/04/14 07:34:08;;;;;;;6.13;2.85;;;;;;;;;;5117117;28;20035;-83
2022/04/14 07:36:34;;;;;;;4.80;3.03;;;;;;;;;;5081548;28;20466;-82
2022/04/14 07:39:01;;;;;;;9.23;2.90;;;;;;;;;;5098650;28;20028;-83
2022/04/14 07:41:27;;;;;;;4.80;3.03;;;;;;;;;;5098377;28;20111;-82
2022/04/14 07:43:54;;;;;;;4.22;3.30;;;;;;;;;;5065231;28;20035;-83
2022/04/14 07:46:19;;;;;;;5.15;3.47;;;;;;;;;;5098091;28;20031;-83
2022/04/14 07:48:45;;;;;;;5.97;3.15;;;;;;;;;;5081263;28;20024;-83
2022/04/14 07:51:10;;;;;;;4.93;3.45;;;;;;;;;;5098167;28;20112;-83
2022/04/14 07:53:37;;;;;;;5.50;3.33;;;;;;;;;;5097779;28;20518;-82
2022/04/14 07:56:04;;;;;;;7.35;3.20;;;;;;;;;;5116091;28;20420;-82
2022/04/14 07:58:29;;;;;;;4.43;3.10;;;;;;;;;;5098044;28;20034;-82
2022/04/14 08:00:55;;;;;;;5.32;3.33;;;;;;;;;;5098227;28;20031;-83
2022/04/14 08:03:21;;;;;;;6.00;2.90;;;;;;;;;;5098271;28;20066;-84
2022/04/14 08:05:48;;;;;;;5.10;2.80;;;;;;;;;;5080752;28;20066;-84
2022/04/14 08:08:19;;;;;;;6.50;3.08;;;;;;;;;;5081022;28;20111;-84
2022/04/14 08:10:46;;;;;;;7.15;2.97;;;;;;;;;;5098356;28;20043;-83
2022/04/14 08:13:13;;;;;;;6.35;3.10;;;;;;;;;;5098058;28;20070;-84
2022/04/14 08:15:39;;;;;;;5.93;2.78;;;;;;;;;;5080566;28;20031;-83
2022/04/14 08:18:06;;;;;;;4.80;3.20;;;;;;;;;;5081363;28;20062;-83
2022/04/14 08:20:33;;;;;;;6.90;3.25;;;;;;;;;;5098911;28;20015;-83
2022/04/14 08:22:59;;;;;;;6.43;2.92;;;;;;;;;;5100362;28;20020;-82
2022/04/14 08:25:27;;;;;;;15.40;3.60;;;;;;;;;;5117174;28;20063;-80
2022/04/14 08:27:54;;;;;;;7.25;4.57;;;;;;;;;;5098562;28;20028;-82
2022/04/14 08:30:21;;;;;;;11.00;4.65;;;;;;;;;;5098273;28;20027;-81
2022/04/14 08:32:47;;;;;;;7.88;4.40;;;;;;;;;;5117677;28;20355;-82
2022/04/14 08:35:14;;;;;;;7.03;4.40;;;;;;;;;;5098297;28;20035;-85
2022/04/14 08:37:40;;;;;;;9.45;4.88;;;;;;;;;;5098203;28;20476;-83
2022/04/14 08:40:08;;;;;;;7.80;4.82;;;;;;;;;;5098268;28;20080;-83
2022/04/14 08:43:00;;;;;;;33.42;5.50;;;;;;;;;;5098122;28;20103;-83
2022/04/14 08:45:27;;;;;;;9.77;5.20;;;;;;;;;;5071343;28;20035;-82
2022/04/14 08:47:54;;;;;;;8.18;5.18;;;;;;;;;;5096837;28;20039;-82
2022/04/14 08:50:19;;;;;;;9.48;5.35;;;;;;;;;;5097188;28;20035;-80
2022/04/14 08:52:45;;;;;;;9.13;5.20;;;;;;;;;;5115205;28;20048;-79
2022/04/14 08:55:12;;;;;;;7.30;5.05;;;;;;;;;;5097637;28;20028;-81
2022/04/14 08:57:41;;;;;;;8.90;5.65;;;;;;;;;;5079888;28;20054;-81
2022/04/14 09:00:09;;;;;;;16.33;5.38;;;;;;;;;;5097542;28;20103;-79
2022/04/14 09:02:35;;;;;;;11.23;6.10;;;;;;;;;;5063346;28;20075;-80
2022/04/14 09:05:01;;;;;;;12.05;5.95;;;;;;;;;;5115315;28;20122;-80
2022/04/14 09:07:27;;;;;;;13.93;5.30;;;;;;;;;;5097686;28;20547;-79
2022/04/14 09:09:52;;;;;;;10.48;5.03;;;;;;;;;;5081592;28;20126;-80
2022/04/14 09:12:18;;;;;;;11.13;5.00;;;;;;;;;;5081686;28;20036;-79
2022/04/14 09:14:47;;;;;;;23.92;5.53;;;;;;;;;;5116141;28;20031;-79
2022/04/14 09:17:13;;;;;;;13.02;5.60;;;;;;;;;;5080535;28;20055;-81
2022/04/14 09:19:38;;;;;;;13.82;5.43;;;;;;;;;;5080149;28;20027;-81
2022/04/14 09:22:08;;;;;;;10.38;5.07;;;;;;;;;;5079891;28;20088;-81
2022/04/14 09:24:44;;;;;;;29.85;5.07;;;;;;;;;;5079397;28;20110;-81
2022/04/14 09:27:22;;;;;;;10.80;4.30;;;;;;;;;;5114634;28;20098;-80
2022/04/14 09:29:48;;;;;;;15.52;4.93;;;;;;;;;;5079307;28;20023;-81
2022/04/14 09:32:42;;;;;;;10.40;4.15;;;;;;;;;;5079203;28;20031;-80
2022/04/14 09:35:18;;;;;;;8.65;3.80;;;;;;;;;;5095984;28;20123;-80
2022/04/14 09:37:44;;;;;;;7.38;3.15;;;;;;;;;;5096228;28;20030;-80
2022/04/14 09:40:12;;;;;;;8.00;3.15;;;;;;;;;;5079081;28;20028;-80
2022/04/14 09:42:40;;;;;;;8.45;3.20;;;;;;;;;;5096336;28;20019;-80
2022/04/14 09:45:19;;;;;;;4.47;2.53;;;;;;;;;;5114398;28;20087;-80
2022/04/14 09:47:45;;;;;;;5.63;2.85;;;;;;;;;;5095911;28;20441;-80
2022/04/14 09:50:25;;;;;;;8.30;2.47;;;;;;;;;;5079296;28;20048;-80
2022/04/14 09:52:59;;;;;;;9.10;2.60;;;;;;;;;;5087825;28;20052;-81
2022/04/14 09:55:25;;;;;;;6.95;2.53;;;;;;;;;;5075934;28;20115;-82
2022/04/14 09:58:06;;;;;;;7.70;2.20;;;;;;;;;;5058711;28;20116;-82
2022/04/14 10:00:46;;;;;;;6.20;2.30;;;;;;;;;;5076278;28;20020;-82
2022/04/14 10:03:14;;;;;;;4.40;2.25;;;;;;;;;;5058652;28;20031;-81
2022/04/14 10:05:39;;;;;;;5.97;2.15;;;;;;;;;;5075555;28;20043;-81
2022/04/14 10:08:08;;;;;;;3.33;2.10;;;;;;;;;;5075495;28;20479;-81
2022/04/14 10:10:44;;;;;;;6.78;2.50;;;;;;;;;;5076949;28;20016;-81
2022/04/14 10:13:17;;;;;;;7.28;2.63;;;;;;;;;;5075873;28;20024;-81
2022/04/14 10:15:48;;;;;;;5.33;1.80;;;;;;;;;;5075596;28;20058;-81
2022/04/14 10:18:17;;;;;;;4.05;2.10;;;;;;;;;;5075864;28;20372;-81
2022/04/14 10:20:45;;;;;;;6.35;1.90;;;;;;;;;;5076192;28;20124;-81
2022/04/14 10:23:12;;;;;;;5.32;2.25;;;;;;;;;;5076209;28;20024;-81
2022/04/14 10:25:38;;;;;;;3.85;2.15;;;;;;;;;;5093587;28;20024;-81
2022/04/14 10:28:08;;;;;;;2.78;1.52;;;;;;;;;;5075442;28;20522;-81
2022/04/14 10:30:34;;;;;;;2.63;1.75;;;;;;;;;;5058505;28;20368;-81
2022/04/14 10:32:59;;;;;;;2.25;1.77;;;;;;;;;;5075268;28;20028;-81
2022/04/14 10:35:30;;;;;;;2.80;1.77;;;;;;;;;;5075146;28;20028;-81
2022/04/14 10:38:20;;;;;;;3.35;1.50;;;;;;;;;;5093176;28;20020;-81
2022/04/14 10:40:48;;;;;;;1.88;1.48;;;;;;;;;;5075161;28;20016;-82
2022/04/14 10:43:18;;;;;;;2.95;1.80;;;;;;;;;;5075091;28;20039;-81
2022/04/14 10:45:52;;;;;;;2.33;1.50;;;;;;;;;;5075651;28;20024;-81
2022/04/14 10:48:35;;;;;;;7.15;1.63;;;;;;;;;;5077041;28;20028;-81
2022/04/14 10:51:23;;;;;;;3.22;1.38;;;;;;;;;;5062078;28;20035;-80
2022/04/14 10:54:09;;;;;;;2.38;1.45;;;;;;;;;;5082782;28;20413;-81
2022/04/14 10:56:34;;;;;;;3.13;1.50;;;;;;;;;;5079110;28;20088;-81
2022/04/14 10:59:04;;;;;;;4.47;2.08;;;;;;;;;;5097075;28;20023;-77
2022/04/14 11:01:48;;;;;;;4.15;1.38;;;;;;;;;;5078875;28;20502;-81
2022/04/14 11:04:23;;;;;;;;;;;;;;;;;;5097276;28;20038;-81
2022/04/14 11:06:53;;;;;;;4.07;1.60;;;;;;;;;;5078668;28;20437;-83
2022/04/14 11:09:44;;;;;;;3.42;1.45;;;;;;;;;;5062201;28;20032;-80
2022/04/14 11:12:35;;;;;;;2.90;1.70;;;;;;;;;;5097248;28;20424;-80
2022/04/14 11:15:02;;;;;;;3.95;1.80;;;;;;;;;;5095601;28;20382;-79
2022/04/14 11:17:31;;;;;;;3.40;1.90;;;;;;;;;;5078190;28;20027;-78
2022/04/14 11:20:18;;;;;;;17.30;1.98;;;;;;;;;;5096312;28;20024;-79
2022/04/14 11:23:20;;;;;;;3.63;1.90;;;;;;;;;;5096178;28;20032;-79
2022/04/14 11:25:51;;;;;;;3.35;1.77;;;;;;;;;;5078770;28;20073;-81
2022/04/14 11:28:19;;;;;;;4.95;1.67;;;;;;;;;;5061627;28;20509;-80
2022/04/14 11:30:45;;;;;;;2.97;1.70;;;;;;;;;;5096620;28;20103;-81
2022/04/14 11:33:16;;;;;;;4.05;1.85;;;;;;;;;;5061334;28;20119;-81
2022/04/14 11:35:45;;;;;;;1.85;1.45;;;;;;;;;;5078599;28;20040;-81
2022/04/14 11:38:50;;;;;;;3.33;1.60;;;;;;;;;;5078523;28;20352;-81
2022/04/14 11:41:34;;;;;;;;;;;;;;;;;;5096454;28;20024;-81
2022/04/14 11:44:04;;;;;;;3.07;1.40;;;;;;;;;;5095890;28;19908;-81
2022/04/14 11:46:29;;;;;;;1.40;1.30;;;;;;;;;;5095786;28;20267;-81
2022/04/14 11:48:55;;;;;;;2.47;1.73;;;;;;;;;;5096102;28;20032;-81
2022/04/14 11:51:21;;;;;;;3.63;1.77;;;;;;;;;;5078060;28;20493;-81
2022/04/14 11:53:46;;;;;;;2.25;1.48;;;;;;;;;;5107244;28;20051;-81
2022/04/14 11:56:18;;;;;;;2.30;1.50;;;;;;;;;;5097977;28;20054;-81
2022/04/14 11:58:44;;;;;;;5.18;1.60;;;;;;;;;;5097714;28;20069;-81
2022/04/14 12:01:09;;;;;;;2.38;1.40;;;;;;;;;;5097642;28;20110;-81
2022/04/14 12:03:35;;;;;;;2.80;1.48;;;;;;;;;;5115781;28;20027;-81
2022/04/14 12:06:14;;;;;;;4.88;1.50;;;;;;;;;;5097691;28;20035;-80
2022/04/14 12:08:39;;;;;;;5.47;1.83;;;;;;;;;;5080901;28;20187;-81
2022/04/14 12:11:12;;;;;;;2.97;1.50;;;;;;;;;;5097639;28;20518;-81
2022/04/14 12:13:39;;;;;;;2.40;1.60;;;;;;;;;;5097895;28;20378;-80
2022/04/14 12:16:07;;;;;;;2.72;1.73;;;;;;;;;;5080506;28;20027;-80
2022/04/14 12:18:33;;;;;;;3.17;1.27;;;;;;;;;;5097949;28;20036;-81
2022/04/14 12:20:58;;;;;;;3.17;1.50;;;;;;;;;;5116200;28;20034;-81
2022/04/14 12:23:24;;;;;;;2.92;1.50;;;;;;;;;;5116439;28;20023;-81
2022/04/14 12:25:52;;;;;;;2.83;1.38;;;;;;;;;;5097303;28;20450;-81
2022/04/14 12:28:18;;;;;;;2.80;1.42;;;;;;;;;;5116061;28;20031;-81
2022/04/14 12:30:43;;;;;;;4.10;1.40;;;;;;;;;;5115380;28;20061;-81
2022/04/14 12:33:09;;;;;;;2.70;1.40;;;;;;;;;;5115830;28;20027;-81
2022/04/14 12:35:36;;;;;;;2.60;1.38;;;;;;;;;;5097283;28;20394;-82
2022/04/14 12:38:15;;;;;;;2.17;1.40;;;;;;;;;;5097059;28;20028;-81
2022/04/14 12:41:00;;;;;;;2.47;1.52;;;;;;;;;;5097414;28;20015;-81
2022/04/14 12:43:38;;;;;;;2.75;1.40;;;;;;;;;;5080146;28;20023;-81
2022/04/14 12:46:39;;;;;;;2.03;1.40;;;;;;;;;;5115573;28;20028;-81
2022/04/14 12:49:08;;;;;;;4.18;1.42;;;;;;;;;;5016143;28;20070;-80
2022/04/14 12:51:36;;;;;;;4.40;1.88;;;;;;;;;;5033789;28;20042;-80
2022/04/14 12:54:01;;;;;;;2.70;1.20;;;;;;;;;;5033059;28;20124;-80
2022/04/14 12:56:28;;;;;;;3.80;1.40;;;;;;;;;;5016884;28;20144;-80
2022/04/14 12:59:12;;;;;;;1.63;1.33;;;;;;;;;;5036939;28;20025;-80
2022/04/14 13:01:46;;;;;;;4.93;1.70;;;;;;;;;;5021795;28;20029;-79
2022/04/14 13:04:11;;;;;;;5.30;1.40;;;;;;;;;;5021319;28;20492;-80
2022/04/14 13:06:37;;;;;;;4.55;1.65;;;;;;;;;;5036050;28;20124;-79
2022/04/14 13:09:15;;;;;;;2.35;1.52;;;;;;;;;;5017601;28;20095;-79
2022/04/14 13:11:46;;;;;;;3.67;1.60;;;;;;;;;;5033159;28;20087;-79
2022/04/14 13:14:31;;;;;;;3.15;1.67;;;;;;;;;;5016238;28;20369;-79
2022/04/14 13:16:59;;;;;;;3.13;1.58;;;;;;;;;;5015634;28;20029;-81
2022/04/14 13:19:25;;;;;;;1.95;1.48;;;;;;;;;;5015518;28;20087;-79
2022/04/14 13:21:51;;;;;;;2.35;1.45;;;;;;;;;;5015845;28;20038;-80
2022/04/14 13:24:17;;;;;;;3.13;1.90;;;;;;;;;;5079717;28;20027;-80
2022/04/14 13:26:43;;;;;;;3.88;1.92;;;;;;;;;;5096607;28;20066;-80
2022/04/14 13:29:10;;;;;;;3.22;1.60;;;;;;;;;;5078882;28;20105;-80
2022/04/14 13:31:42;;;;;;;2.28;1.52;;;;;;;;;;5079384;28;20173;-80
2022/04/14 13:34:08;;;;;;;2.53;1.60;;;;;;;;;;5079254;28;20079;-79
2022/04/14 13:36:34;;;;;;;2.08;1.40;;;;;;;;;;5095998;28;20536;-80
2022/04/14 13:39:00;;;;;;;3.88;1.73;;;;;;;;;;5114863;28;20027;-80
2022/04/14 13:41:25;;;;;;;3.00;1.73;;;;;;;;;;5095940;28;20050;-80
2022/04/14 13:43:51;;;;;;;3.60;1.67;;;;;;;;;;5096144;28;20466;-80
2022/04/14 13:46:17;;;;;;;1.95;1.70;;;;;;;;;;5096018;28;20031;-79
2022/04/14 13:48:42;;;;;;;1.77;1.58;;;;;;;;;;5114306;28;20069;-79
2022/04/14 13:51:10;;;;;;;2.03;1.63;;;;;;;;;;5078851;28;20152;-80
2022/04/14 13:53:36;;;;;;;3.90;1.45;;;;;;;;;;5113749;28;20056;-80
2022/04/14 13:56:01;;;;;;;1.92;1.45;;;;;;;;;;5113774;28;20111;-81
2022/04/14 13:58:26;;;;;;;2.17;1.40;;;;;;;;;;5114365;28;20463;-80
2022/04/14 14:00:52;;;;;;;2.03;1.30;;;;;;;;;;5113833;28;20027;-81
2022/04/14 14:03:17;;;;;;;5.78;1.95;;;;;;;;;;5096110;28;20474;-80
2022/04/14 14:05:43;;;;;;;2.60;1.52;;;;;;;;;;5113742;28;20035;-80
2022/04/14 14:08:09;;;;;;;3.15;1.52;;;;;;;;;;5095712;28;20094;-80
2022/04/14 14:10:36;;;;;;;3.40;2.05;;;;;;;;;;5095599;28;20020;-80
2022/04/14 14:13:02;;;;;;;1.83;1.50;;;;;;;;;;5113816;28;20078;-79
2022/04/14 14:15:27;;;;;;;2.42;1.70;;;;;;;;;;5095860;28;20498;-79
2022/04/14 14:17:53;;;;;;;3.50;1.63;;;;;;;;;;5095473;28;20039;-79
2022/04/14 14:20:18;;;;;;;4.13;1.35;;;;;;;;;;5095412;28;20030;-80
2022/04/14 14:22:45;;;;;;;2.72;1.35;;;;;;;;;;5116995;28;20028;-80
2022/04/14 14:25:11;;;;;;;2.90;1.50;;;;;;;;;;5099819;28;20035;-80
2022/04/14 14:27:36;;;;;;;1.30;1.20;;;;;;;;;;5100014;28;20031;-80
2022/04/14 14:30:04;;;;;;;2.42;1.40;;;;;;;;;;5082478;28;20122;-81
2022/04/14 14:32:30;;;;;;;1.83;1.50;;;;;;;;;;5082581;28;20027;-80
2022/04/14 14:34:55;;;;;;;2.33;1.50;;;;;;;;;;5099835;28;20043;-80
2022/04/14 14:37:21;;;;;;;2.42;1.33;;;;;;;;;;5082856;28;20063;-81
2022/04/14 14:39:46;;;;;;;3.30;1.42;;;;;;;;;;5084954;28;20466;-80
2022/04/14 14:42:11;;;;;;;2.00;1.40;;;;;;;;;;5101572;28;20035;-81
2022/04/14 14:44:37;;;;;;;3.40;1.60;;;;;;;;;;5100964;28;20027;-80
2022/04/14 14:47:02;;;;;;;4.35;1.48;;;;;;;;;;5101818;28;20031;-80